Main page
METAR-TAF:

METAR-TAF

Airports :

Naval Air Station Lemoore

Lemoore, California, United States

latitude: 36-18-13N, longitude: 119-56-17W, elevation: 233 ft

Current weather observation

The report was made 59 minutes ago, at 11:56 UTC
Wind 9 mph from the Northwest
Temperature 70°F
Humidity 60%
Pressure 29.92 in. Hg
Visibility: 10 miles
Clear sky

METAR: KNLC 161156Z AUTO 32008KT 10SM CLR 21/13 A2992 RMK AO2 SLP128 T02060128 10278 20206 53006

Time: 05:55 (12:55 UTC)

Forecast

Forecast valid from 16 at 07 UTC to 17 at 07 UTC
Wind 9 mph from the Northwest
Visibility 6.2 miles or more
Few clouds at a height of 12000 ft
From 17 at 0300 UTC
Wind 12 mph from the Northwest
Visibility 6.2 miles or more
Few clouds at a height of 14000 ft

TAF: KNLC 1607/1707 32008KT 9999 FEW120 QNH2980INS FM170300 32010KT 9999 FEW140 QNH2979INS TX39/1623Z TN18/1613Z FS30224

Weather observations and forecasts of more than 4000 airports (METAR and TAF reports).

The available stations are represented by yellow and red dots on the map.

Hover mouse over dot to see the name of the station.

Then click to see weather observations and forecasts.

To change the map : click on the green buttons with a black cross to zoom in, on the green button with a dash to zoom out, or on the green arrows for adjacent maps.


METAR-TAF: